Latest Coastal Weather Observations for Port Augusta

IDS60701

Issued at 5:35 pm CST Monday 1 September 2014 (issued every 10 minutes, with the page automatically refreshed every 10 minutes)

About coastal observations | Map of coastal stations | Coastal observations for SA | Marine services | Other Formats
Station Details ID: 018201 Name: PORT AUGUSTA AERO Lat: -32.51 Lon: 137.72 Height: 13.97 m
Data from the previous 72 hours. | See also: Recent months at Port Augusta
Date/Time
CST
Temp

°C
Wind Pressure Rain
since 9am
mm
Weather Cloud Vis
km
Sea
Height
m
Swell
Dir
 
Speed
knots
Gust
knots
hPa Trend Height
m
Period
s
Dir
01/05:30pm 11.7 SSE 18 22 1018.0 - 1.6 - Partly cloudy - - - - -
01/05:00pm 14.0 SSE 14 19 1016.7 - 1.2 - Partly cloudy - - - - -
01/04:30pm 13.7 SE 11 15 1016.5 - 1.2 - Partly cloudy - - - - -
01/04:00pm 13.4 SSE 14 19 1016.1 - 1.2 - Partly cloudy - - - - -
01/03:34pm 14.0 S 15 25 1016.1 - 1.2 - Partly cloudy - - - - -
01/03:30pm 14.6 S 12 16 1016.1 - 1.2 - Partly cloudy - - - - -
01/03:00pm 15.3 ESE 10 12 1015.3 - 1.2 - Cloudy - - - - -
01/02:30pm 14.3 ESE 12 17 1015.3 - 1.2 - Partly cloudy - - - - -
01/02:00pm 15.1 SE 11 18 1015.5 - 1.2 - Partly cloudy - - - - -
01/01:30pm 14.7 S 11 15 1015.8 - 1.2 - Partly cloudy - - - - -
01/01:00pm 14.0 SSW 12 16 1015.7 - 1.2 - Partly cloudy - - - - -
01/12:30pm 12.3 S 17 21 1015.6 - 1.0 - Partly cloudy - - - - -
01/12:00pm 15.4 WSW 12 15 1015.7 - 0.8 - Cloudy - - - - -
01/11:30am 14.7 WSW 10 13 1015.9 - 0.8 - Partly cloudy - - - - -
01/11:00am 14.2 W 5 9 1016.1 - 0.8 - Partly cloudy - - - - -
01/10:30am 13.6 WSW 5 6 1016.1 - 0.8 - Partly cloudy - - - - -
01/10:15am 13.5 SSW 4 5 1015.9 - 0.2 - Partly cloudy - - - - -
01/10:00am 13.4 CALM 0 3 1015.7 - 0.2 - Partly cloudy - - - - -
01/09:40am 13.5 SW 5 6 1015.9 - 0.0 - Partly cloudy - - - - -
01/09:30am 13.4 SSW 7 8 1015.8 - 0.0 - Partly cloudy - - - - -
01/09:19am 13.4 CALM 0 0 1015.6 - 0.0 - Partly cloudy - - - - -
01/09:00am 13.1 ESE 3 4 1015.2 - 4.8 - Cloudy - - - - -
01/08:30am 13.0 E 4 6 1015.0 - 4.6 - Cloudy - - - - -
01/08:00am 13.2 ESE 3 5 1015.2 - 4.4 - Partly cloudy - - - - -
01/07:52am 13.2 S 3 5 1015.1 - 4.4 - Partly cloudy - - - - -
01/07:37am 13.2 SSE 4 6 1015.0 - 4.4 - Partly cloudy - - - - -
01/07:30am 13.1 ESE 3 5 1015.1 - 4.2 - Partly cloudy - - - - -
01/07:00am 13.1 SSE 3 7 1014.9 - 4.0 - Partly cloudy - - - - -
01/06:30am 12.9 S 11 16 1013.6 - 4.0 - Partly cloudy - - - - -
01/06:05am 13.5 NW 5 7 1015.2 - 2.6 - Partly cloudy - - - - -
01/06:00am 13.5 W 5 9 1015.0 - 2.6 - Cloudy - - - - -
01/05:55am 13.6 SW 7 12 1014.6 - 2.6 - Partly cloudy - - - - -
01/05:30am 13.6 S 9 15 1012.6 - 2.2 - Partly cloudy - - - - -
01/05:00am 13.2 N 6 8 1013.5 - 2.0 - Partly cloudy - - - - -
01/04:30am 13.7 ESE 10 15 1011.6 - 1.4 - Partly cloudy - - - - -
01/04:00am 13.9 ESE 13 19 1011.0 - 1.2 - Partly cloudy - - - - -
01/03:30am 14.1 S 11 16 1011.8 - 0.4 - Partly cloudy - - - - -
01/03:00am 13.9 SE 10 12 1011.9 - 0.4 - Cloudy - - - - -
01/02:30am 13.8 SSE 11 14 1012.3 - 0.2 - Partly cloudy - - - - -
01/02:00am 14.0 SSE 11 14 1012.9 - 0.0 - Cloudy - - - - -
01/01:30am 14.3 SE 12 19 1012.9 - 0.0 - - - - - - -
01/01:00am 14.6 SE 13 19 1012.8 - 0.0 - - - - - - -
01/12:30am 15.2 SE 14 18 1013.5 - 0.0 - - - - - - -
01/12:00am 16.3 S 8 11 1013.4 - 0.0 - - - - - - -
 
Date/Time
CST
Temp

°C
Wind Pressure Rain
since 9am
mm
Weather Cloud Vis
km
Sea
Height
m
Swell
Dir
 
Speed
knots
Gust
knots
hPa Trend Height
m
Period
s
Dir
31/11:30pm 16.0 NNW 5 6 1012.2 - 0.0 - - - - - - -
31/11:00pm 17.4 W 7 9 1011.8 - 0.0 - - - - - - -
31/10:30pm 19.0 NW 10 12 1011.0 - 0.0 - - - - - - -
31/10:00pm 18.1 NW 9 11 1011.2 - 0.0 - - - - - - -
31/09:30pm 18.4 WNW 8 10 1011.3 - 0.0 - - - - - - -
31/09:00pm 20.6 N 11 16 1010.9 - 0.0 - - - - - - -
31/08:30pm 21.4 N 13 20 1010.7 - 0.0 - - - - - - -
31/08:00pm 20.8 N 12 15 1010.7 - 0.0 - - - - - - -
31/07:30pm 20.4 N 10 14 1010.7 - 0.0 - - - - - - -
31/07:00pm 21.0 N 11 13 1010.7 - 0.0 - - - - - - -
31/06:30pm 22.0 N 12 14 1010.4 - 0.0 - - - - - - -
31/06:00pm 23.7 N 13 16 1010.7 - 0.0 - - - - - - -
31/05:30pm 24.5 N 14 18 1010.7 - 0.0 - - - - - - -
31/05:00pm 25.5 N 14 18 1010.8 - 0.0 - - - - - - -
31/04:30pm 25.9 N 17 22 1010.6 - 0.0 - - - - - - -
31/04:00pm 26.6 N 16 21 1010.7 - 0.0 - - - - - - -
31/03:30pm 27.8 N 17 22 1011.0 - 0.0 - - - - - - -
31/03:00pm 26.4 NNW 15 19 1011.5 - 0.0 - - - - - - -
31/02:30pm 26.8 NNW 18 23 1011.8 - 0.0 - - - - - - -
31/02:00pm 26.3 NNW 17 26 1012.2 - 0.0 - - - - - - -
31/01:30pm 27.5 NNW 17 23 1012.6 - 0.0 - - - - - - -
31/01:00pm 27.3 N 19 29 1013.2 - 0.0 - - - - - - -
31/12:56pm 26.5 N 19 29 1013.2 - 0.0 - - - - - - -
31/12:30pm 27.1 N 20 27 1013.9 - 0.0 - - - - - - -
31/12:00pm 26.2 N 18 24 1014.8 - 0.0 - - - - - - -
31/11:30am 24.1 N 17 21 1015.4 - 0.0 - - - - - - -
31/11:00am 23.4 N 14 19 1016.1 - 0.0 - - - - - - -
31/10:30am 22.5 N 11 15 1016.8 - 0.0 - - - - - - -
31/10:00am 21.2 N 11 15 1017.3 - 0.0 - - - - - - -
31/09:30am 19.4 N 12 15 1017.8 - 0.0 - - - - - - -
31/09:00am 17.7 N 12 17 1017.9 - 0.0 - - - - - - -
31/08:30am 15.0 NW 7 10 1017.8 - 0.0 - - - - - - -
31/08:00am 13.5 NW 6 8 1017.5 - 0.0 - - - - - - -
31/07:30am 11.9 WNW 7 9 1017.1 - 0.0 - - - - - - -
31/07:00am 8.5 WNW 7 8 1017.1 - 0.0 - - - - - - -
31/06:30am 10.6 NW 9 11 1016.8 - 0.0 - - - - - - -
31/06:00am 8.4 W 7 9 1016.6 - 0.0 - - - - - - -
31/05:30am 8.2 W 7 9 1016.0 - 0.0 - - - - - - -
31/05:00am 9.0 W 6 7 1016.0 - 0.0 - - - - - - -
31/04:30am 9.7 WNW 8 9 1015.9 - 0.0 - - - - - - -
31/04:00am 10.1 WNW 8 9 1016.3 - 0.0 - - - - - - -
31/03:30am 12.2 NW 6 10 1016.4 - 0.0 - - - - - - -
31/03:00am 8.2 W 5 6 1016.8 - 0.0 - - - - - - -
31/02:30am 8.0 WSW 7 8 1017.1 - 0.0 - - - - - - -
31/02:00am 6.6 WSW 7 8 1017.2 - 0.0 - - - - - - -
31/01:30am 7.2 WSW 5 7 1017.6 - 0.0 - - - - - - -
31/01:00am 7.3 WNW 3 4 1017.8 - 0.0 - - - - - - -
31/12:30am 8.6 W 3 4 1018.0 - 0.0 - - - - - - -
31/12:00am 8.9 W 2 3 1018.3 - 0.0 - - - - - - -
 
Date/Time
CST
Temp

°C
Wind Pressure Rain
since 9am
mm
Weather Cloud Vis
km
Sea
Height
m
Swell
Dir
 
Speed
knots
Gust
knots
hPa Trend Height
m
Period
s
Dir
30/11:30pm 8.7 WSW 3 4 1018.5 - 0.0 - - - - - - -
30/11:00pm 8.5 W 3 4 1018.5 - 0.0 - - - - - - -
30/10:30pm 9.9 WNW 4 5 1018.7 - 0.0 - - - - - - -
30/10:00pm 9.9 W 5 8 1018.8 - 0.0 - - - - - - -
30/09:30pm 11.2 W 5 7 1019.0 - 0.0 - - - - - - -
30/09:00pm 13.9 N 7 8 1019.0 - 0.0 - - - - - - -
30/08:30pm 14.2 N 8 9 1018.9 - 0.0 - - - - - - -
30/08:00pm 14.8 NNE 7 8 1019.0 - 0.0 - - - - - - -
30/07:30pm 15.8 N 7 7 1019.0 - 0.0 - - - - - - -
30/07:00pm 16.7 N 6 8 1018.9 - 0.0 - - - - - - -
30/06:30pm 17.5 N 8 9 1018.6 - 0.0 - - - - - - -
30/06:00pm 20.0 NNE 8 9 1018.5 - 0.0 - - - - - - -
30/05:30pm 23.0 N 10 13 1018.4 - 0.0 - - - - - - -
30/05:00pm 24.2 N 11 15 1018.4 - 0.0 - - - - - - -
30/04:30pm 25.3 N 13 17 1018.4 - 0.0 - - - - - - -
30/04:00pm 25.3 N 14 19 1018.5 - 0.0 - - - - - - -
30/03:30pm 26.2 N 12 19 1018.7 - 0.0 - - - - - - -
30/03:00pm 26.0 N 14 19 1018.9 - 0.0 - - - - - - -
30/02:30pm 25.8 N 16 21 1019.3 - 0.0 - - - - - - -
30/02:00pm 26.1 N 15 21 1019.7 - 0.0 - - - - - - -
30/01:30pm 26.4 N 14 22 1020.2 - 0.0 - - - - - - -
30/01:00pm 25.3 N 15 23 1020.9 - 0.0 - - - - - - -
30/12:40pm 25.7 N 15 30 1021.2 - 0.0 - - - - - - -
30/12:30pm 25.1 N 16 22 1021.6 - 0.0 - - - - - - -
30/12:00pm 25.1 N 15 22 1022.0 - 0.0 - - - - - - -
30/11:30am 24.5 N 15 22 1022.6 - 0.0 - - - - - - -
30/11:00am 24.6 N 11 15 1022.9 - 0.0 - - - - - - -
30/10:30am 22.4 N 10 13 1023.5 - 0.0 - - - - - - -
30/10:00am 20.7 N 8 11 1023.8 - 0.0 - - - - - - -
30/09:30am 18.9 NNW 6 8 1024.2 - 0.0 - - - - - - -
30/09:00am 17.6 NW 5 7 1024.2 - 0.0 - - - - - - -
30/08:30am 15.1 WNW 3 4 1024.2 - 0.0 - - - - - - -
30/08:00am 11.7 WSW 5 5 1024.2 - 0.0 - - - - - - -
30/07:30am 7.6 WSW 6 7 1024.0 - 0.0 - - - - - - -
30/07:00am 3.2 WNW 4 4 1023.9 - 0.0 - - - - - - -
30/06:30am 3.9 NNW 4 4 1023.8 - 0.0 - - - - - - -
30/06:00am 3.8 N 3 5 1023.6 - 0.0 - - - - - - -
30/05:30am 5.4 WNW 4 4 1023.6 - 0.0 - - - - - - -
30/05:00am 5.2 WSW 4 5 1023.4 - 0.0 - - - - - - -
30/04:30am 4.5 WSW 5 7 1023.3 - 0.0 - - - - - - -
30/04:00am 4.9 W 4 5 1023.1 - 0.0 - - - - - - -
30/03:30am 4.7 W 4 5 1023.2 - 0.0 - - - - - - -
30/03:00am 6.0 CALM 0 0 1023.4 - 0.0 - - - - - - -
30/02:30am 6.3 CALM 0 0 1023.7 - 0.0 - - - - - - -
30/02:00am 7.5 CALM 0 0 1023.9 - 0.0 - - - - - - -
30/01:30am 7.5 W 3 4 1024.2 - 0.0 - - - - - - -
30/01:00am 7.8 W 3 5 1024.3 - 0.0 - - - - - - -
30/12:30am 7.4 WSW 4 5 1024.1 - 0.0 - - - - - - -
30/12:00am 7.9 WSW 4 4 1024.3 - 0.0 - - - - - - -
 
Date/Time
CST
Temp

°C
Wind Pressure Rain
since 9am
mm
Weather Cloud Vis
km
Sea
Height
m
Swell
Dir
 
Speed
knots
Gust
knots
hPa Trend Height
m
Period
s
Dir
29/11:30pm 8.5 WSW 3 4 1024.3 - 0.0 - - - - - - -
29/11:00pm 8.0 WSW 5 6 1024.3 - 0.0 - - - - - - -
29/10:30pm 8.6 CALM 0 4 1024.4 - 0.0 - - - - - - -
29/10:00pm 10.0 WSW 3 4 1024.5 - 0.0 - - - - - - -
29/09:30pm 11.9 CALM 0 0 1024.6 - 0.0 - - - - - - -
29/09:00pm 12.8 W 5 6 1024.6 - 0.0 - - - - - - -
29/08:30pm 16.1 NNW 5 7 1024.5 - 0.0 - - - - - - -
29/08:00pm 16.0 NNE 6 7 1024.3 - 0.0 - - - - - - -
29/07:30pm 16.8 E 5 7 1024.1 - 0.0 - - - - - - -
29/07:00pm 18.5 E 6 9 1023.9 - 0.0 - - - - - - -
29/06:30pm 18.9 N 6 7 1023.6 - 0.0 - - - - - - -
29/06:00pm 20.8 N 6 8 1023.4 - 0.0 - - - - - - -

Other Formats:

Comma delimited format used in spreadsheet applications
http://www.bom.gov.au/fwo/IDS60701/IDS60701.95666.axf

JavaScript Object Notation format (JSON) in row-major order
http://www.bom.gov.au/fwo/IDS60701/IDS60701.95666.json